sensor_id;sensor_type;location;lat;lon;timestamp;P1;durP1;ratioP1;P2;durP2;ratioP2
80576;SDS011;69937;52.420;10.538;2023-07-31T00:04:08;5.53;;;1.38;;
80576;SDS011;69937;52.420;10.538;2023-07-31T00:09:08;2.90;;;1.40;;
80576;SDS011;69937;52.420;10.538;2023-07-31T00:14:09;1.70;;;1.08;;
80576;SDS011;69937;52.420;10.538;2023-07-31T00:19:09;2.63;;;1.00;;
80576;SDS011;69937;52.420;10.538;2023-07-31T00:24:10;1.70;;;0.95;;
80576;SDS011;69937;52.420;10.538;2023-07-31T00:29:11;2.88;;;1.10;;
80576;SDS011;69937;52.420;10.538;2023-07-31T00:34:11;3.55;;;1.15;;
80576;SDS011;69937;52.420;10.538;2023-07-31T00:39:12;4.10;;;1.20;;
80576;SDS011;69937;52.420;10.538;2023-07-31T00:44:12;3.10;;;1.13;;
80576;SDS011;69937;52.420;10.538;2023-07-31T00:49:13;3.13;;;1.30;;
80576;SDS011;69937;52.420;10.538;2023-07-31T00:54:13;2.35;;;1.13;;
80576;SDS011;69937;52.420;10.538;2023-07-31T00:59:14;5.88;;;1.33;;
80576;SDS011;69937;52.420;10.538;2023-07-31T01:04:15;1.75;;;1.05;;
80576;SDS011;69937;52.420;10.538;2023-07-31T01:09:20;3.63;;;1.40;;
80576;SDS011;69937;52.420;10.538;2023-07-31T01:14:23;4.22;;;1.27;;
80576;SDS011;69937;52.420;10.538;2023-07-31T01:19:24;2.72;;;1.25;;
80576;SDS011;69937;52.420;10.538;2023-07-31T01:29:43;4.20;;;1.45;;
80576;SDS011;69937;52.420;10.538;2023-07-31T01:34:49;3.65;;;1.23;;
80576;SDS011;69937;52.420;10.538;2023-07-31T01:39:51;5.65;;;1.35;;
80576;SDS011;69937;52.420;10.538;2023-07-31T01:44:52;3.10;;;1.25;;
80576;SDS011;69937;52.420;10.538;2023-07-31T01:49:52;2.92;;;1.50;;
80576;SDS011;69937;52.420;10.538;2023-07-31T01:54:53;4.05;;;1.33;;
80576;SDS011;69937;52.420;10.538;2023-07-31T01:59:53;2.13;;;1.17;;
80576;SDS011;69937;52.420;10.538;2023-07-31T02:04:54;3.67;;;1.17;;
80576;SDS011;69937;52.420;10.538;2023-07-31T02:09:54;2.80;;;1.30;;
80576;SDS011;69937;52.420;10.538;2023-07-31T02:14:55;3.58;;;1.13;;
80576;SDS011;69937;52.420;10.538;2023-07-31T02:19:55;4.32;;;1.33;;
80576;SDS011;69937;52.420;10.538;2023-07-31T02:24:56;2.85;;;1.25;;
80576;SDS011;69937;52.420;10.538;2023-07-31T02:29:56;3.35;;;1.25;;
80576;SDS011;69937;52.420;10.538;2023-07-31T02:34:59;2.92;;;1.10;;
80576;SDS011;69937;52.420;10.538;2023-07-31T02:39:59;3.72;;;1.38;;
80576;SDS011;69937;52.420;10.538;2023-07-31T02:45:00;6.15;;;1.20;;
80576;SDS011;69937;52.420;10.538;2023-07-31T02:50:01;1.88;;;0.88;;
80576;SDS011;69937;52.420;10.538;2023-07-31T02:55:03;2.22;;;0.90;;
80576;SDS011;69937;52.420;10.538;2023-07-31T03:00:04;2.63;;;1.25;;
80576;SDS011;69937;52.420;10.538;2023-07-31T03:05:06;2.22;;;1.00;;
80576;SDS011;69937;52.420;10.538;2023-07-31T03:10:07;2.30;;;1.10;;
80576;SDS011;69937;52.420;10.538;2023-07-31T03:15:08;1.75;;;1.05;;
80576;SDS011;69937;52.420;10.538;2023-07-31T03:20:09;1.15;;;0.80;;
80576;SDS011;69937;52.420;10.538;2023-07-31T03:25:10;1.40;;;0.85;;
80576;SDS011;69937;52.420;10.538;2023-07-31T03:30:11;1.52;;;1.05;;
80576;SDS011;69937;52.420;10.538;2023-07-31T03:35:11;2.38;;;1.00;;
80576;SDS011;69937;52.420;10.538;2023-07-31T03:40:12;1.60;;;0.80;;
80576;SDS011;69937;52.420;10.538;2023-07-31T03:45:12;3.58;;;1.20;;
80576;SDS011;69937;52.420;10.538;2023-07-31T03:50:13;1.70;;;1.10;;
80576;SDS011;69937;52.420;10.538;2023-07-31T03:55:13;1.92;;;1.10;;
80576;SDS011;69937;52.420;10.538;2023-07-31T04:00:14;2.00;;;1.02;;
80576;SDS011;69937;52.420;10.538;2023-07-31T04:05:15;3.53;;;1.00;;
80576;SDS011;69937;52.420;10.538;2023-07-31T04:10:15;3.95;;;0.88;;
80576;SDS011;69937;52.420;10.538;2023-07-31T04:15:16;2.75;;;1.27;;
80576;SDS011;69937;52.420;10.538;2023-07-31T04:20:16;1.73;;;0.80;;
80576;SDS011;69937;52.420;10.538;2023-07-31T04:25:17;2.92;;;1.10;;
80576;SDS011;69937;52.420;10.538;2023-07-31T04:30:18;1.52;;;1.08;;
80576;SDS011;69937;52.420;10.538;2023-07-31T04:35:18;5.68;;;1.17;;
80576;SDS011;69937;52.420;10.538;2023-07-31T04:40:19;3.20;;;1.17;;
80576;SDS011;69937;52.420;10.538;2023-07-31T04:45:19;1.85;;;1.42;;
80576;SDS011;69937;52.420;10.538;2023-07-31T04:50:20;3.50;;;0.90;;
80576;SDS011;69937;52.420;10.538;2023-07-31T04:55:20;2.63;;;0.90;;
80576;SDS011;69937;52.420;10.538;2023-07-31T05:00:21;4.78;;;1.10;;
80576;SDS011;69937;52.420;10.538;2023-07-31T05:05:21;4.28;;;1.10;;
80576;SDS011;69937;52.420;10.538;2023-07-31T05:10:22;1.33;;;0.98;;
80576;SDS011;69937;52.420;10.538;2023-07-31T05:15:22;3.88;;;1.10;;
80576;SDS011;69937;52.420;10.538;2023-07-31T05:20:23;2.15;;;1.23;;
80576;SDS011;69937;52.420;10.538;2023-07-31T05:25:23;2.47;;;1.10;;
80576;SDS011;69937;52.420;10.538;2023-07-31T05:30:24;3.15;;;1.13;;
80576;SDS011;69937;52.420;10.538;2023-07-31T05:35:24;2.05;;;0.90;;
80576;SDS011;69937;52.420;10.538;2023-07-31T05:40:25;1.73;;;0.80;;
80576;SDS011;69937;52.420;10.538;2023-07-31T05:45:25;2.38;;;1.00;;
80576;SDS011;69937;52.420;10.538;2023-07-31T05:50:26;1.83;;;1.02;;
80576;SDS011;69937;52.420;10.538;2023-07-31T05:55:27;1.90;;;0.85;;
80576;SDS011;69937;52.420;10.538;2023-07-31T06:00:27;1.85;;;0.70;;
80576;SDS011;69937;52.420;10.538;2023-07-31T06:05:28;1.70;;;0.95;;
80576;SDS011;69937;52.420;10.538;2023-07-31T06:10:30;3.83;;;0.88;;
80576;SDS011;69937;52.420;10.538;2023-07-31T06:15:30;2.53;;;0.95;;
80576;SDS011;69937;52.420;10.538;2023-07-31T06:20:31;1.40;;;0.90;;
80576;SDS011;69937;52.420;10.538;2023-07-31T06:25:31;1.08;;;0.88;;
80576;SDS011;69937;52.420;10.538;2023-07-31T06:30:32;2.53;;;1.40;;
80576;SDS011;69937;52.420;10.538;2023-07-31T06:35:32;2.22;;;1.20;;
80576;SDS011;69937;52.420;10.538;2023-07-31T06:40:33;2.30;;;1.23;;
80576;SDS011;69937;52.420;10.538;2023-07-31T06:45:34;5.18;;;2.00;;
80576;SDS011;69937;52.420;10.538;2023-07-31T06:50:35;3.35;;;1.85;;
80576;SDS011;69937;52.420;10.538;2023-07-31T06:55:37;3.28;;;2.00;;
80576;SDS011;69937;52.420;10.538;2023-07-31T07:00:37;3.90;;;2.03;;
80576;SDS011;69937;52.420;10.538;2023-07-31T07:05:38;4.80;;;2.50;;
80576;SDS011;69937;52.420;10.538;2023-07-31T07:10:38;4.65;;;2.63;;
80576;SDS011;69937;52.420;10.538;2023-07-31T07:15:39;5.78;;;2.63;;
80576;SDS011;69937;52.420;10.538;2023-07-31T07:20:39;5.40;;;2.70;;
80576;SDS011;69937;52.420;10.538;2023-07-31T07:25:46;5.40;;;3.67;;
80576;SDS011;69937;52.420;10.538;2023-07-31T07:30:51;8.20;;;3.58;;
80576;SDS011;69937;52.420;10.538;2023-07-31T07:35:53;6.10;;;3.70;;
80576;SDS011;69937;52.420;10.538;2023-07-31T07:40:54;9.00;;;4.30;;
80576;SDS011;69937;52.420;10.538;2023-07-31T07:45:54;10.30;;;4.50;;
80576;SDS011;69937;52.420;10.538;2023-07-31T07:50:55;9.05;;;4.55;;
80576;SDS011;69937;52.420;10.538;2023-07-31T07:55:55;19.02;;;4.80;;
80576;SDS011;69937;52.420;10.538;2023-07-31T08:00:56;6.88;;;4.18;;
80576;SDS011;69937;52.420;10.538;2023-07-31T08:06:00;11.13;;;5.30;;
80576;SDS011;69937;52.420;10.538;2023-07-31T08:16:01;12.52;;;4.95;;
80576;SDS011;69937;52.420;10.538;2023-07-31T08:21:02;12.30;;;4.78;;
80576;SDS011;69937;52.420;10.538;2023-07-31T08:26:03;9.68;;;5.60;;
80576;SDS011;69937;52.420;10.538;2023-07-31T08:31:04;11.65;;;4.80;;
80576;SDS011;69937;52.420;10.538;2023-07-31T08:36:04;13.23;;;5.30;;
80576;SDS011;69937;52.420;10.538;2023-07-31T08:41:05;11.63;;;4.75;;
80576;SDS011;69937;52.420;10.538;2023-07-31T08:46:05;13.50;;;4.47;;
80576;SDS011;69937;52.420;10.538;2023-07-31T08:51:06;10.45;;;4.03;;
80576;SDS011;69937;52.420;10.538;2023-07-31T08:56:07;6.70;;;4.22;;
80576;SDS011;69937;52.420;10.538;2023-07-31T09:01:07;7.95;;;3.33;;
80576;SDS011;69937;52.420;10.538;2023-07-31T09:06:09;6.53;;;2.70;;
80576;SDS011;69937;52.420;10.538;2023-07-31T09:11:10;6.40;;;2.92;;
80576;SDS011;69937;52.420;10.538;2023-07-31T09:16:12;8.10;;;3.08;;
80576;SDS011;69937;52.420;10.538;2023-07-31T09:21:13;8.55;;;3.20;;
80576;SDS011;69937;52.420;10.538;2023-07-31T09:31:43;8.05;;;3.33;;
80576;SDS011;69937;52.420;10.538;2023-07-31T09:36:44;8.68;;;3.05;;
80576;SDS011;69937;52.420;10.538;2023-07-31T09:41:47;5.68;;;3.10;;
80576;SDS011;69937;52.420;10.538;2023-07-31T09:46:53;6.05;;;3.40;;
80576;SDS011;69937;52.420;10.538;2023-07-31T09:51:53;8.48;;;3.13;;
80576;SDS011;69937;52.420;10.538;2023-07-31T09:56:54;7.00;;;2.95;;
80576;SDS011;69937;52.420;10.538;2023-07-31T10:01:56;7.22;;;2.85;;
80576;SDS011;69937;52.420;10.538;2023-07-31T10:06:57;5.57;;;2.75;;
80576;SDS011;69937;52.420;10.538;2023-07-31T10:12:02;5.55;;;2.55;;
80576;SDS011;69937;52.420;10.538;2023-07-31T10:17:09;5.72;;;2.70;;
80576;SDS011;69937;52.420;10.538;2023-07-31T10:22:10;3.33;;;1.85;;
80576;SDS011;69937;52.420;10.538;2023-07-31T10:27:12;5.13;;;1.67;;
80576;SDS011;69937;52.420;10.538;2023-07-31T10:32:13;4.93;;;1.77;;
80576;SDS011;69937;52.420;10.538;2023-07-31T10:47:48;5.85;;;1.98;;
80576;SDS011;69937;52.420;10.538;2023-07-31T10:52:52;3.55;;;2.13;;
80576;SDS011;69937;52.420;10.538;2023-07-31T10:57:55;6.80;;;2.40;;
80576;SDS011;69937;52.420;10.538;2023-07-31T11:02:57;5.22;;;2.40;;
80576;SDS011;69937;52.420;10.538;2023-07-31T11:08:11;4.60;;;1.83;;
80576;SDS011;69937;52.420;10.538;2023-07-31T11:13:12;4.82;;;1.92;;
80576;SDS011;69937;52.420;10.538;2023-07-31T11:18:13;3.10;;;1.75;;
80576;SDS011;69937;52.420;10.538;2023-07-31T11:23:15;6.97;;;1.40;;
80576;SDS011;69937;52.420;10.538;2023-07-31T11:28:17;2.15;;;1.15;;
80576;SDS011;69937;52.420;10.538;2023-07-31T11:33:18;3.50;;;1.58;;
80576;SDS011;69937;52.420;10.538;2023-07-31T11:38:26;4.63;;;1.48;;
80576;SDS011;69937;52.420;10.538;2023-07-31T11:43:33;2.25;;;1.30;;
80576;SDS011;69937;52.420;10.538;2023-07-31T11:48:36;6.97;;;1.65;;
80576;SDS011;69937;52.420;10.538;2023-07-31T11:53:41;5.13;;;1.40;;
80576;SDS011;69937;52.420;10.538;2023-07-31T11:58:49;2.95;;;1.38;;
80576;SDS011;69937;52.420;10.538;2023-07-31T12:03:53;3.30;;;1.63;;
80576;SDS011;69937;52.420;10.538;2023-07-31T12:09:00;3.42;;;1.30;;
80576;SDS011;69937;52.420;10.538;2023-07-31T12:14:04;3.05;;;1.27;;
80576;SDS011;69937;52.420;10.538;2023-07-31T12:19:04;3.30;;;1.10;;
80576;SDS011;69937;52.420;10.538;2023-07-31T12:24:07;6.18;;;1.38;;
80576;SDS011;69937;52.420;10.538;2023-07-31T12:29:07;2.67;;;0.88;;
80576;SDS011;69937;52.420;10.538;2023-07-31T12:34:18;5.75;;;1.35;;
80576;SDS011;69937;52.420;10.538;2023-07-31T12:39:21;2.90;;;1.20;;
80576;SDS011;69937;52.420;10.538;2023-07-31T12:44:21;3.10;;;1.08;;
80576;SDS011;69937;52.420;10.538;2023-07-31T12:49:22;2.70;;;1.20;;
80576;SDS011;69937;52.420;10.538;2023-07-31T12:54:22;2.63;;;1.08;;
80576;SDS011;69937;52.420;10.538;2023-07-31T12:59:23;1.67;;;0.82;;
80576;SDS011;69937;52.420;10.538;2023-07-31T13:04:23;3.25;;;1.08;;
80576;SDS011;69937;52.420;10.538;2023-07-31T13:09:24;2.13;;;0.82;;
80576;SDS011;69937;52.420;10.538;2023-07-31T13:14:24;1.63;;;0.75;;
80576;SDS011;69937;52.420;10.538;2023-07-31T13:19:25;2.88;;;0.93;;
80576;SDS011;69937;52.420;10.538;2023-07-31T13:24:25;5.32;;;0.70;;
80576;SDS011;69937;52.420;10.538;2023-07-31T13:29:26;1.58;;;0.75;;
80576;SDS011;69937;52.420;10.538;2023-07-31T13:34:26;2.38;;;0.77;;
80576;SDS011;69937;52.420;10.538;2023-07-31T13:39:27;2.88;;;0.82;;
80576;SDS011;69937;52.420;10.538;2023-07-31T13:44:27;1.67;;;0.70;;
80576;SDS011;69937;52.420;10.538;2023-07-31T13:49:28;1.52;;;0.63;;
80576;SDS011;69937;52.420;10.538;2023-07-31T13:54:29;1.00;;;0.30;;
80576;SDS011;69937;52.420;10.538;2023-07-31T13:59:30;2.22;;;0.52;;
80576;SDS011;69937;52.420;10.538;2023-07-31T14:04:31;1.70;;;0.60;;
80576;SDS011;69937;52.420;10.538;2023-07-31T14:09:31;1.20;;;0.55;;
80576;SDS011;69937;52.420;10.538;2023-07-31T14:14:32;0.90;;;0.40;;
80576;SDS011;69937;52.420;10.538;2023-07-31T14:19:34;0.88;;;0.40;;
80576;SDS011;69937;52.420;10.538;2023-07-31T14:24:34;1.33;;;0.30;;
80576;SDS011;69937;52.420;10.538;2023-07-31T14:29:35;0.50;;;0.22;;
80576;SDS011;69937;52.420;10.538;2023-07-31T14:34:35;0.82;;;0.32;;
80576;SDS011;69937;52.420;10.538;2023-07-31T14:39:36;1.10;;;0.38;;
80576;SDS011;69937;52.420;10.538;2023-07-31T14:44:36;0.68;;;0.40;;
80576;SDS011;69937;52.420;10.538;2023-07-31T14:49:37;1.88;;;0.40;;
80576;SDS011;69937;52.420;10.538;2023-07-31T14:54:37;0.70;;;0.30;;
80576;SDS011;69937;52.420;10.538;2023-07-31T14:59:38;0.85;;;0.45;;
80576;SDS011;69937;52.420;10.538;2023-07-31T15:04:38;1.50;;;0.40;;
80576;SDS011;69937;52.420;10.538;2023-07-31T15:09:39;3.75;;;0.50;;
80576;SDS011;69937;52.420;10.538;2023-07-31T15:14:39;2.40;;;0.50;;
80576;SDS011;69937;52.420;10.538;2023-07-31T15:19:40;4.78;;;0.47;;
80576;SDS011;69937;52.420;10.538;2023-07-31T15:24:41;1.75;;;0.75;;
80576;SDS011;69937;52.420;10.538;2023-07-31T15:29:41;2.55;;;0.50;;
80576;SDS011;69937;52.420;10.538;2023-07-31T15:34:42;1.23;;;0.50;;
80576;SDS011;69937;52.420;10.538;2023-07-31T15:39:42;1.48;;;0.70;;
80576;SDS011;69937;52.420;10.538;2023-07-31T15:44:43;1.45;;;0.75;;
80576;SDS011;69937;52.420;10.538;2023-07-31T15:49:43;1.30;;;0.63;;
80576;SDS011;69937;52.420;10.538;2023-07-31T15:54:44;1.20;;;0.50;;
80576;SDS011;69937;52.420;10.538;2023-07-31T15:59:44;3.05;;;0.95;;
80576;SDS011;69937;52.420;10.538;2023-07-31T16:04:45;1.67;;;0.93;;
80576;SDS011;69937;52.420;10.538;2023-07-31T16:09:45;2.35;;;0.80;;
80576;SDS011;69937;52.420;10.538;2023-07-31T16:14:46;1.77;;;0.85;;
80576;SDS011;69937;52.420;10.538;2023-07-31T16:19:46;2.20;;;0.90;;
80576;SDS011;69937;52.420;10.538;2023-07-31T16:24:47;2.65;;;0.90;;
80576;SDS011;69937;52.420;10.538;2023-07-31T16:29:48;2.60;;;1.20;;
80576;SDS011;69937;52.420;10.538;2023-07-31T16:34:48;2.92;;;0.80;;
80576;SDS011;69937;52.420;10.538;2023-07-31T16:39:49;1.90;;;1.02;;
80576;SDS011;69937;52.420;10.538;2023-07-31T16:44:51;3.03;;;0.68;;
80576;SDS011;69937;52.420;10.538;2023-07-31T16:49:52;1.50;;;0.75;;
80576;SDS011;69937;52.420;10.538;2023-07-31T16:54:52;3.00;;;0.82;;
80576;SDS011;69937;52.420;10.538;2023-07-31T16:59:53;1.42;;;0.80;;
80576;SDS011;69937;52.420;10.538;2023-07-31T17:04:53;2.05;;;1.00;;
80576;SDS011;69937;52.420;10.538;2023-07-31T17:09:54;1.92;;;0.90;;
80576;SDS011;69937;52.420;10.538;2023-07-31T17:14:56;1.67;;;0.70;;
80576;SDS011;69937;52.420;10.538;2023-07-31T17:19:56;1.40;;;0.73;;
80576;SDS011;69937;52.420;10.538;2023-07-31T17:24:57;1.45;;;0.68;;
80576;SDS011;69937;52.420;10.538;2023-07-31T17:29:57;2.40;;;0.70;;
80576;SDS011;69937;52.420;10.538;2023-07-31T17:34:58;1.52;;;1.00;;
80576;SDS011;69937;52.420;10.538;2023-07-31T17:39:59;1.15;;;0.57;;
80576;SDS011;69937;52.420;10.538;2023-07-31T17:45:00;1.38;;;0.50;;
80576;SDS011;69937;52.420;10.538;2023-07-31T17:50:00;1.58;;;0.80;;
80576;SDS011;69937;52.420;10.538;2023-07-31T17:55:01;1.40;;;0.55;;
80576;SDS011;69937;52.420;10.538;2023-07-31T18:00:02;1.23;;;0.50;;
80576;SDS011;69937;52.420;10.538;2023-07-31T18:05:04;1.73;;;0.70;;
80576;SDS011;69937;52.420;10.538;2023-07-31T18:10:05;3.35;;;0.73;;
80576;SDS011;69937;52.420;10.538;2023-07-31T18:15:07;1.60;;;0.80;;
80576;SDS011;69937;52.420;10.538;2023-07-31T18:20:08;1.77;;;0.80;;
80576;SDS011;69937;52.420;10.538;2023-07-31T18:25:11;2.08;;;1.00;;
80576;SDS011;69937;52.420;10.538;2023-07-31T18:30:13;1.98;;;0.90;;
80576;SDS011;69937;52.420;10.538;2023-07-31T18:35:14;1.67;;;0.60;;
80576;SDS011;69937;52.420;10.538;2023-07-31T18:40:16;1.83;;;1.10;;
80576;SDS011;69937;52.420;10.538;2023-07-31T18:45:17;2.08;;;0.70;;
80576;SDS011;69937;52.420;10.538;2023-07-31T18:50:17;2.78;;;0.90;;
80576;SDS011;69937;52.420;10.538;2023-07-31T18:55:18;1.83;;;0.77;;
80576;SDS011;69937;52.420;10.538;2023-07-31T19:00:18;1.83;;;0.95;;
80576;SDS011;69937;52.420;10.538;2023-07-31T19:05:19;3.00;;;0.85;;
80576;SDS011;69937;52.420;10.538;2023-07-31T19:10:21;1.75;;;0.95;;
80576;SDS011;69937;52.420;10.538;2023-07-31T19:15:21;1.73;;;0.95;;
80576;SDS011;69937;52.420;10.538;2023-07-31T19:20:22;3.75;;;1.30;;
80576;SDS011;69937;52.420;10.538;2023-07-31T19:25:22;1.80;;;1.10;;
80576;SDS011;69937;52.420;10.538;2023-07-31T19:30:23;3.45;;;1.35;;
80576;SDS011;69937;52.420;10.538;2023-07-31T19:35:24;2.15;;;1.30;;
80576;SDS011;69937;52.420;10.538;2023-07-31T19:40:27;2.10;;;1.30;;
80576;SDS011;69937;52.420;10.538;2023-07-31T19:45:27;1.88;;;1.08;;
80576;SDS011;69937;52.420;10.538;2023-07-31T19:50:29;1.98;;;1.02;;
80576;SDS011;69937;52.420;10.538;2023-07-31T19:55:30;3.78;;;1.20;;
80576;SDS011;69937;52.420;10.538;2023-07-31T20:00:31;3.50;;;1.40;;
80576;SDS011;69937;52.420;10.538;2023-07-31T20:05:31;2.38;;;1.23;;
80576;SDS011;69937;52.420;10.538;2023-07-31T20:10:33;3.13;;;1.30;;
80576;SDS011;69937;52.420;10.538;2023-07-31T20:15:34;3.63;;;1.63;;
80576;SDS011;69937;52.420;10.538;2023-07-31T20:20:35;4.93;;;1.63;;
80576;SDS011;69937;52.420;10.538;2023-07-31T20:25:36;5.13;;;1.75;;
80576;SDS011;69937;52.420;10.538;2023-07-31T20:30:36;5.03;;;1.65;;
80576;SDS011;69937;52.420;10.538;2023-07-31T20:35:37;2.42;;;1.40;;
80576;SDS011;69937;52.420;10.538;2023-07-31T20:40:37;4.53;;;2.08;;
80576;SDS011;69937;52.420;10.538;2023-07-31T20:45:38;4.03;;;1.92;;
80576;SDS011;69937;52.420;10.538;2023-07-31T20:50:40;3.38;;;1.60;;
80576;SDS011;69937;52.420;10.538;2023-07-31T20:55:40;4.07;;;1.70;;
80576;SDS011;69937;52.420;10.538;2023-07-31T21:00:41;3.15;;;1.77;;
80576;SDS011;69937;52.420;10.538;2023-07-31T21:05:50;5.80;;;2.17;;
80576;SDS011;69937;52.420;10.538;2023-07-31T21:10:51;3.90;;;1.63;;
80576;SDS011;69937;52.420;10.538;2023-07-31T21:15:56;3.38;;;1.92;;
80576;SDS011;69937;52.420;10.538;2023-07-31T21:20:58;4.88;;;2.03;;
80576;SDS011;69937;52.420;10.538;2023-07-31T21:25:59;5.20;;;2.08;;
80576;SDS011;69937;52.420;10.538;2023-07-31T21:31:07;3.75;;;2.20;;
80576;SDS011;69937;52.420;10.538;2023-07-31T21:36:15;3.53;;;1.83;;
80576;SDS011;69937;52.420;10.538;2023-07-31T21:41:15;6.97;;;2.25;;
80576;SDS011;69937;52.420;10.538;2023-07-31T21:46:16;3.90;;;1.80;;
80576;SDS011;69937;52.420;10.538;2023-07-31T21:51:18;3.78;;;1.95;;
80576;SDS011;69937;52.420;10.538;2023-07-31T21:56:18;3.03;;;1.95;;
80576;SDS011;69937;52.420;10.538;2023-07-31T22:01:19;3.75;;;2.03;;
80576;SDS011;69937;52.420;10.538;2023-07-31T22:06:19;4.63;;;2.38;;
80576;SDS011;69937;52.420;10.538;2023-07-31T22:11:20;5.05;;;1.95;;
80576;SDS011;69937;52.420;10.538;2023-07-31T22:16:22;3.42;;;1.77;;
80576;SDS011;69937;52.420;10.538;2023-07-31T22:21:22;5.05;;;2.13;;
80576;SDS011;69937;52.420;10.538;2023-07-31T22:26:23;3.20;;;1.88;;
80576;SDS011;69937;52.420;10.538;2023-07-31T22:31:23;3.78;;;1.70;;
80576;SDS011;69937;52.420;10.538;2023-07-31T22:36:24;5.38;;;2.30;;
80576;SDS011;69937;52.420;10.538;2023-07-31T22:41:24;2.33;;;1.50;;
80576;SDS011;69937;52.420;10.538;2023-07-31T22:46:25;4.28;;;1.73;;
80576;SDS011;69937;52.420;10.538;2023-07-31T22:51:25;4.65;;;1.52;;
80576;SDS011;69937;52.420;10.538;2023-07-31T22:56:26;2.30;;;1.60;;
80576;SDS011;69937;52.420;10.538;2023-07-31T23:01:26;4.35;;;1.58;;
80576;SDS011;69937;52.420;10.538;2023-07-31T23:06:27;5.55;;;1.88;;
80576;SDS011;69937;52.420;10.538;2023-07-31T23:11:27;2.45;;;1.55;;
80576;SDS011;69937;52.420;10.538;2023-07-31T23:16:28;3.78;;;1.40;;
80576;SDS011;69937;52.420;10.538;2023-07-31T23:21:28;4.75;;;1.30;;
80576;SDS011;69937;52.420;10.538;2023-07-31T23:26:29;2.38;;;1.45;;
80576;SDS011;69937;52.420;10.538;2023-07-31T23:31:30;1.88;;;1.17;;
80576;SDS011;69937;52.420;10.538;2023-07-31T23:36:30;2.38;;;1.55;;
80576;SDS011;69937;52.420;10.538;2023-07-31T23:41:31;2.13;;;1.00;;
80576;SDS011;69937;52.420;10.538;2023-07-31T23:46:31;1.60;;;1.20;;
80576;SDS011;69937;52.420;10.538;2023-07-31T23:51:32;2.83;;;1.15;;
80576;SDS011;69937;52.420;10.538;2023-07-31T23:56:32;1.92;;;1.00;;
